sensor_id;sensor_type;location;lat;lon;timestamp;temperature;humidity
24682;DHT22;12802;53.390;-2.328;2022-12-28T00:02:10;7.90;99.90
24682;DHT22;12802;53.390;-2.328;2022-12-28T00:04:35;7.90;99.90
24682;DHT22;12802;53.390;-2.328;2022-12-28T00:07:01;7.90;99.90
24682;DHT22;12802;53.390;-2.328;2022-12-28T00:09:27;8.00;99.90
24682;DHT22;12802;53.390;-2.328;2022-12-28T00:11:52;8.00;99.90
24682;DHT22;12802;53.390;-2.328;2022-12-28T00:14:18;8.00;99.90
24682;DHT22;12802;53.390;-2.328;2022-12-28T00:16:44;8.00;99.90
24682;DHT22;12802;53.390;-2.328;2022-12-28T00:19:12;8.10;99.90
24682;DHT22;12802;53.390;-2.328;2022-12-28T00:21:39;8.00;99.90
24682;DHT22;12802;53.390;-2.328;2022-12-28T00:24:05;8.10;99.90
24682;DHT22;12802;53.390;-2.328;2022-12-28T00:26:32;8.10;99.90
24682;DHT22;12802;53.390;-2.328;2022-12-28T00:28:59;8.10;99.90
24682;DHT22;12802;53.390;-2.328;2022-12-28T00:31:25;8.10;99.90
24682;DHT22;12802;53.390;-2.328;2022-12-28T00:33:51;8.20;99.90
24682;DHT22;12802;53.390;-2.328;2022-12-28T00:36:17;8.20;99.90
24682;DHT22;12802;53.390;-2.328;2022-12-28T00:38:43;8.20;99.90
24682;DHT22;12802;53.390;-2.328;2022-12-28T00:41:09;8.20;99.90
24682;DHT22;12802;53.390;-2.328;2022-12-28T00:43:35;8.20;99.90
24682;DHT22;12802;53.390;-2.328;2022-12-28T00:46:01;8.20;99.90
24682;DHT22;12802;53.390;-2.328;2022-12-28T00:48:27;8.20;99.90
24682;DHT22;12802;53.390;-2.328;2022-12-28T00:51:02;8.10;99.90
24682;DHT22;12802;53.390;-2.328;2022-12-28T00:53:28;8.10;99.90
24682;DHT22;12802;53.390;-2.328;2022-12-28T00:55:54;8.00;99.90
24682;DHT22;12802;53.390;-2.328;2022-12-28T00:58:19;7.90;99.90
24682;DHT22;12802;53.390;-2.328;2022-12-28T01:00:45;7.90;99.90
24682;DHT22;12802;53.390;-2.328;2022-12-28T01:03:13;7.90;99.90
24682;DHT22;12802;53.390;-2.328;2022-12-28T01:05:39;7.80;99.90
24682;DHT22;12802;53.390;-2.328;2022-12-28T01:08:07;7.80;99.90
24682;DHT22;12802;53.390;-2.328;2022-12-28T01:10:33;7.70;99.90
24682;DHT22;12802;53.390;-2.328;2022-12-28T01:12:59;7.70;99.90
24682;DHT22;12802;53.390;-2.328;2022-12-28T01:15:24;7.70;99.90
24682;DHT22;12802;53.390;-2.328;2022-12-28T01:17:50;7.60;99.90
24682;DHT22;12802;53.390;-2.328;2022-12-28T01:20:16;7.60;99.90
24682;DHT22;12802;53.390;-2.328;2022-12-28T01:22:42;7.50;99.90
24682;DHT22;12802;53.390;-2.328;2022-12-28T01:25:08;7.50;99.90
24682;DHT22;12802;53.390;-2.328;2022-12-28T01:27:36;7.50;99.90
24682;DHT22;12802;53.390;-2.328;2022-12-28T01:30:01;7.40;99.90
24682;DHT22;12802;53.390;-2.328;2022-12-28T01:32:27;7.40;99.90
24682;DHT22;12802;53.390;-2.328;2022-12-28T01:34:54;7.30;99.90
24682;DHT22;12802;53.390;-2.328;2022-12-28T01:37:20;7.30;99.90
24682;DHT22;12802;53.390;-2.328;2022-12-28T01:39:46;7.30;99.90
24682;DHT22;12802;53.390;-2.328;2022-12-28T01:42:16;7.20;99.90
24682;DHT22;12802;53.390;-2.328;2022-12-28T01:44:47;7.20;99.90
24682;DHT22;12802;53.390;-2.328;2022-12-28T01:47:17;7.20;99.90
24682;DHT22;12802;53.390;-2.328;2022-12-28T01:50:07;7.10;99.90
24682;DHT22;12802;53.390;-2.328;2022-12-28T01:52:56;7.10;99.90
24682;DHT22;12802;53.390;-2.328;2022-12-28T01:55:31;7.10;99.90
24682;DHT22;12802;53.390;-2.328;2022-12-28T01:58:08;7.10;99.90
24682;DHT22;12802;53.390;-2.328;2022-12-28T02:00:36;7.10;99.90
24682;DHT22;12802;53.390;-2.328;2022-12-28T02:03:15;7.10;99.90
24682;DHT22;12802;53.390;-2.328;2022-12-28T02:05:47;7.10;99.90
24682;DHT22;12802;53.390;-2.328;2022-12-28T02:10:58;7.10;99.90
24682;DHT22;12802;53.390;-2.328;2022-12-28T02:13:25;7.00;99.90
24682;DHT22;12802;53.390;-2.328;2022-12-28T02:15:51;7.00;99.90
24682;DHT22;12802;53.390;-2.328;2022-12-28T02:18:18;7.00;99.90
24682;DHT22;12802;53.390;-2.328;2022-12-28T02:26:16;6.90;99.90
24682;DHT22;12802;53.390;-2.328;2022-12-28T02:34:01;6.70;99.90
24682;DHT22;12802;53.390;-2.328;2022-12-28T02:36:36;6.70;99.90
24682;DHT22;12802;53.390;-2.328;2022-12-28T02:39:18;6.60;99.90
24682;DHT22;12802;53.390;-2.328;2022-12-28T02:41:47;6.60;99.90
24682;DHT22;12802;53.390;-2.328;2022-12-28T02:44:14;6.50;99.90
24682;DHT22;12802;53.390;-2.328;2022-12-28T02:47:00;6.40;99.90
24682;DHT22;12802;53.390;-2.328;2022-12-28T02:49:44;6.40;99.90
24682;DHT22;12802;53.390;-2.328;2022-12-28T02:55:49;6.20;99.90
24682;DHT22;12802;53.390;-2.328;2022-12-28T03:04:26;6.40;99.90
24682;DHT22;12802;53.390;-2.328;2022-12-28T03:10:41;6.40;99.90
24682;DHT22;12802;53.390;-2.328;2022-12-28T03:13:16;6.40;99.90
24682;DHT22;12802;53.390;-2.328;2022-12-28T03:16:06;6.40;99.90
24682;DHT22;12802;53.390;-2.328;2022-12-28T03:18:35;6.40;99.90
24682;DHT22;12802;53.390;-2.328;2022-12-28T03:21:21;6.40;99.90
24682;DHT22;12802;53.390;-2.328;2022-12-28T03:24:09;6.40;99.90
24682;DHT22;12802;53.390;-2.328;2022-12-28T03:26:56;6.30;99.90
24682;DHT22;12802;53.390;-2.328;2022-12-28T03:29:54;6.30;99.90
24682;DHT22;12802;53.390;-2.328;2022-12-28T03:32:41;6.30;99.90
24682;DHT22;12802;53.390;-2.328;2022-12-28T03:35:07;6.30;99.90
24682;DHT22;12802;53.390;-2.328;2022-12-28T03:38:18;6.30;99.90
24682;DHT22;12802;53.390;-2.328;2022-12-28T03:40:38;6.20;99.90
24682;DHT22;12802;53.390;-2.328;2022-12-28T03:43:10;6.20;99.90
24682;DHT22;12802;53.390;-2.328;2022-12-28T03:46:12;6.20;99.90
24682;DHT22;12802;53.390;-2.328;2022-12-28T03:48:43;6.20;99.90
24682;DHT22;12802;53.390;-2.328;2022-12-28T03:51:10;6.20;99.90
24682;DHT22;12802;53.390;-2.328;2022-12-28T03:53:43;6.20;99.90
24682;DHT22;12802;53.390;-2.328;2022-12-28T03:58:43;6.20;99.90
24682;DHT22;12802;53.390;-2.328;2022-12-28T04:01:09;6.20;99.90
24682;DHT22;12802;53.390;-2.328;2022-12-28T04:03:36;6.20;99.90
24682;DHT22;12802;53.390;-2.328;2022-12-28T04:06:03;6.20;99.90
24682;DHT22;12802;53.390;-2.328;2022-12-28T04:08:31;6.30;99.90
24682;DHT22;12802;53.390;-2.328;2022-12-28T04:11:00;6.40;99.90
24682;DHT22;12802;53.390;-2.328;2022-12-28T04:13:30;6.30;99.90
24682;DHT22;12802;53.390;-2.328;2022-12-28T04:16:11;6.40;99.90
24682;DHT22;12802;53.390;-2.328;2022-12-28T04:18:38;6.40;99.90
24682;DHT22;12802;53.390;-2.328;2022-12-28T04:21:05;6.40;99.90
24682;DHT22;12802;53.390;-2.328;2022-12-28T04:23:31;6.30;99.90
24682;DHT22;12802;53.390;-2.328;2022-12-28T04:26:15;6.30;99.90
24682;DHT22;12802;53.390;-2.328;2022-12-28T04:28:43;6.30;99.90
24682;DHT22;12802;53.390;-2.328;2022-12-28T04:31:28;6.40;99.90
24682;DHT22;12802;53.390;-2.328;2022-12-28T04:34:02;6.40;99.90
24682;DHT22;12802;53.390;-2.328;2022-12-28T04:36:31;6.40;99.90
24682;DHT22;12802;53.390;-2.328;2022-12-28T04:38:59;6.40;99.90
24682;DHT22;12802;53.390;-2.328;2022-12-28T04:41:25;6.30;99.90
24682;DHT22;12802;53.390;-2.328;2022-12-28T04:43:53;6.30;99.90
24682;DHT22;12802;53.390;-2.328;2022-12-28T04:46:19;6.30;99.90
24682;DHT22;12802;53.390;-2.328;2022-12-28T04:48:45;6.40;99.90
24682;DHT22;12802;53.390;-2.328;2022-12-28T04:51:20;6.40;99.90
24682;DHT22;12802;53.390;-2.328;2022-12-28T04:53:46;6.40;99.90
24682;DHT22;12802;53.390;-2.328;2022-12-28T04:56:13;6.40;99.90
24682;DHT22;12802;53.390;-2.328;2022-12-28T04:58:40;6.40;99.90
24682;DHT22;12802;53.390;-2.328;2022-12-28T05:01:11;6.40;99.90
24682;DHT22;12802;53.390;-2.328;2022-12-28T05:03:38;6.40;99.90
24682;DHT22;12802;53.390;-2.328;2022-12-28T05:06:10;6.40;99.90
24682;DHT22;12802;53.390;-2.328;2022-12-28T05:08:37;6.40;99.90
24682;DHT22;12802;53.390;-2.328;2022-12-28T05:11:05;6.40;99.90
24682;DHT22;12802;53.390;-2.328;2022-12-28T05:13:32;6.40;99.90
24682;DHT22;12802;53.390;-2.328;2022-12-28T05:16:02;6.40;99.90
24682;DHT22;12802;53.390;-2.328;2022-12-28T05:18:29;6.30;99.90
24682;DHT22;12802;53.390;-2.328;2022-12-28T05:21:05;6.30;99.90
24682;DHT22;12802;53.390;-2.328;2022-12-28T05:23:32;6.40;99.90
24682;DHT22;12802;53.390;-2.328;2022-12-28T05:25:58;6.50;99.90
24682;DHT22;12802;53.390;-2.328;2022-12-28T05:28:25;6.40;99.90
24682;DHT22;12802;53.390;-2.328;2022-12-28T05:30:52;6.40;99.90
24682;DHT22;12802;53.390;-2.328;2022-12-28T05:33:18;6.50;99.90
24682;DHT22;12802;53.390;-2.328;2022-12-28T05:35:44;6.50;99.90
24682;DHT22;12802;53.390;-2.328;2022-12-28T05:38:09;6.50;99.90
24682;DHT22;12802;53.390;-2.328;2022-12-28T05:40:35;6.50;99.90
24682;DHT22;12802;53.390;-2.328;2022-12-28T05:43:01;6.50;99.90
24682;DHT22;12802;53.390;-2.328;2022-12-28T05:45:27;6.50;99.90
24682;DHT22;12802;53.390;-2.328;2022-12-28T05:47:55;6.40;99.90
24682;DHT22;12802;53.390;-2.328;2022-12-28T05:50:21;6.40;99.90
24682;DHT22;12802;53.390;-2.328;2022-12-28T05:52:47;6.40;99.90
24682;DHT22;12802;53.390;-2.328;2022-12-28T05:55:13;6.40;99.90
24682;DHT22;12802;53.390;-2.328;2022-12-28T05:57:38;6.40;99.90
24682;DHT22;12802;53.390;-2.328;2022-12-28T06:00:05;6.40;99.90
24682;DHT22;12802;53.390;-2.328;2022-12-28T06:02:37;6.40;99.90
24682;DHT22;12802;53.390;-2.328;2022-12-28T06:05:03;6.40;99.90
24682;DHT22;12802;53.390;-2.328;2022-12-28T06:07:29;6.50;99.90
24682;DHT22;12802;53.390;-2.328;2022-12-28T06:09:55;6.60;99.90
24682;DHT22;12802;53.390;-2.328;2022-12-28T06:12:20;6.50;99.90
24682;DHT22;12802;53.390;-2.328;2022-12-28T06:14:46;6.60;99.90
24682;DHT22;12802;53.390;-2.328;2022-12-28T06:17:12;6.60;99.90
24682;DHT22;12802;53.390;-2.328;2022-12-28T06:19:37;6.60;99.90
24682;DHT22;12802;53.390;-2.328;2022-12-28T06:22:03;6.60;99.90
24682;DHT22;12802;53.390;-2.328;2022-12-28T06:24:29;6.60;99.90
24682;DHT22;12802;53.390;-2.328;2022-12-28T06:26:55;6.60;99.90
24682;DHT22;12802;53.390;-2.328;2022-12-28T06:29:20;6.70;99.90
24682;DHT22;12802;53.390;-2.328;2022-12-28T06:31:46;6.70;99.90
24682;DHT22;12802;53.390;-2.328;2022-12-28T06:34:13;6.70;99.90
24682;DHT22;12802;53.390;-2.328;2022-12-28T06:36:41;6.80;99.90
24682;DHT22;12802;53.390;-2.328;2022-12-28T06:39:09;6.80;99.90
24682;DHT22;12802;53.390;-2.328;2022-12-28T06:41:36;6.80;99.90
24682;DHT22;12802;53.390;-2.328;2022-12-28T06:44:08;6.80;99.90
24682;DHT22;12802;53.390;-2.328;2022-12-28T06:46:34;6.80;99.90
24682;DHT22;12802;53.390;-2.328;2022-12-28T06:49:01;6.90;99.90
24682;DHT22;12802;53.390;-2.328;2022-12-28T06:51:29;6.90;99.90
24682;DHT22;12802;53.390;-2.328;2022-12-28T06:53:56;6.90;99.90
24682;DHT22;12802;53.390;-2.328;2022-12-28T06:56:24;6.90;99.90
24682;DHT22;12802;53.390;-2.328;2022-12-28T06:58:51;6.90;99.90
24682;DHT22;12802;53.390;-2.328;2022-12-28T07:01:25;7.00;99.90
24682;DHT22;12802;53.390;-2.328;2022-12-28T07:03:53;7.00;99.90
24682;DHT22;12802;53.390;-2.328;2022-12-28T07:06:21;7.00;99.90
24682;DHT22;12802;53.390;-2.328;2022-12-28T07:08:48;7.00;99.90
24682;DHT22;12802;53.390;-2.328;2022-12-28T07:11:16;7.00;99.90
24682;DHT22;12802;53.390;-2.328;2022-12-28T07:13:42;7.10;99.90
24682;DHT22;12802;53.390;-2.328;2022-12-28T07:16:28;7.20;99.90
24682;DHT22;12802;53.390;-2.328;2022-12-28T07:18:56;7.20;99.90
24682;DHT22;12802;53.390;-2.328;2022-12-28T07:21:24;7.20;99.90
24682;DHT22;12802;53.390;-2.328;2022-12-28T07:23:51;7.30;99.90
24682;DHT22;12802;53.390;-2.328;2022-12-28T07:26:19;7.30;99.90
24682;DHT22;12802;53.390;-2.328;2022-12-28T07:28:49;7.30;99.90
24682;DHT22;12802;53.390;-2.328;2022-12-28T07:31:18;7.30;99.90
24682;DHT22;12802;53.390;-2.328;2022-12-28T07:33:45;7.30;99.90
24682;DHT22;12802;53.390;-2.328;2022-12-28T07:36:13;7.20;99.90
24682;DHT22;12802;53.390;-2.328;2022-12-28T07:38:40;7.10;99.90
24682;DHT22;12802;53.390;-2.328;2022-12-28T07:41:11;7.10;99.90
24682;DHT22;12802;53.390;-2.328;2022-12-28T07:43:37;7.20;99.90
24682;DHT22;12802;53.390;-2.328;2022-12-28T07:48:30;7.10;99.90
24682;DHT22;12802;53.390;-2.328;2022-12-28T07:50:56;7.10;99.90
24682;DHT22;12802;53.390;-2.328;2022-12-28T07:53:22;7.10;99.90
24682;DHT22;12802;53.390;-2.328;2022-12-28T07:55:55;7.10;99.90
24682;DHT22;12802;53.390;-2.328;2022-12-28T07:58:21;7.10;99.90
24682;DHT22;12802;53.390;-2.328;2022-12-28T08:00:47;7.20;99.90
24682;DHT22;12802;53.390;-2.328;2022-12-28T08:03:14;7.20;99.90
24682;DHT22;12802;53.390;-2.328;2022-12-28T08:05:39;7.20;99.90
24682;DHT22;12802;53.390;-2.328;2022-12-28T08:08:05;7.10;99.90
24682;DHT22;12802;53.390;-2.328;2022-12-28T08:10:32;7.10;99.90
24682;DHT22;12802;53.390;-2.328;2022-12-28T08:12:59;7.10;99.90
24682;DHT22;12802;53.390;-2.328;2022-12-28T08:15:25;7.10;99.90
24682;DHT22;12802;53.390;-2.328;2022-12-28T08:17:52;7.10;99.90
24682;DHT22;12802;53.390;-2.328;2022-12-28T08:20:18;7.00;99.90
24682;DHT22;12802;53.390;-2.328;2022-12-28T08:22:44;7.10;99.90
24682;DHT22;12802;53.390;-2.328;2022-12-28T08:25:10;7.10;99.90
24682;DHT22;12802;53.390;-2.328;2022-12-28T08:27:36;7.10;99.90
24682;DHT22;12802;53.390;-2.328;2022-12-28T08:30:01;7.10;99.90
24682;DHT22;12802;53.390;-2.328;2022-12-28T08:32:27;7.10;99.90
24682;DHT22;12802;53.390;-2.328;2022-12-28T08:34:53;7.10;99.90
24682;DHT22;12802;53.390;-2.328;2022-12-28T08:37:18;7.10;99.90
24682;DHT22;12802;53.390;-2.328;2022-12-28T08:39:44;7.10;99.90
24682;DHT22;12802;53.390;-2.328;2022-12-28T08:42:10;7.00;99.90
24682;DHT22;12802;53.390;-2.328;2022-12-28T08:44:36;7.00;99.90
24682;DHT22;12802;53.390;-2.328;2022-12-28T08:47:01;7.10;99.90
24682;DHT22;12802;53.390;-2.328;2022-12-28T08:49:27;7.10;99.90
24682;DHT22;12802;53.390;-2.328;2022-12-28T08:51:53;7.10;99.90
24682;DHT22;12802;53.390;-2.328;2022-12-28T08:54:19;7.10;99.90
24682;DHT22;12802;53.390;-2.328;2022-12-28T08:56:45;7.10;99.90
24682;DHT22;12802;53.390;-2.328;2022-12-28T08:59:16;7.10;99.90
24682;DHT22;12802;53.390;-2.328;2022-12-28T09:01:43;7.20;99.90
24682;DHT22;12802;53.390;-2.328;2022-12-28T09:04:12;7.20;99.90
24682;DHT22;12802;53.390;-2.328;2022-12-28T09:06:38;7.20;99.90
24682;DHT22;12802;53.390;-2.328;2022-12-28T09:09:06;7.20;99.90
24682;DHT22;12802;53.390;-2.328;2022-12-28T09:11:34;7.20;99.90
24682;DHT22;12802;53.390;-2.328;2022-12-28T09:14:01;7.30;99.90
24682;DHT22;12802;53.390;-2.328;2022-12-28T09:16:27;7.30;99.90
24682;DHT22;12802;53.390;-2.328;2022-12-28T09:18:55;7.30;99.90
24682;DHT22;12802;53.390;-2.328;2022-12-28T09:21:22;7.40;99.90
24682;DHT22;12802;53.390;-2.328;2022-12-28T09:23:48;7.40;99.90
24682;DHT22;12802;53.390;-2.328;2022-12-28T09:26:23;7.50;99.90
24682;DHT22;12802;53.390;-2.328;2022-12-28T09:28:57;7.50;99.90
24682;DHT22;12802;53.390;-2.328;2022-12-28T09:31:26;7.60;99.90
24682;DHT22;12802;53.390;-2.328;2022-12-28T09:33:52;7.60;99.90
24682;DHT22;12802;53.390;-2.328;2022-12-28T09:36:31;7.70;99.90
24682;DHT22;12802;53.390;-2.328;2022-12-28T09:38:58;7.80;99.90
24682;DHT22;12802;53.390;-2.328;2022-12-28T09:49:37;8.10;99.90
24682;DHT22;12802;53.390;-2.328;2022-12-28T09:54:50;8.20;99.90
24682;DHT22;12802;53.390;-2.328;2022-12-28T09:57:17;8.20;99.90
24682;DHT22;12802;53.390;-2.328;2022-12-28T09:59:45;8.30;99.90
24682;DHT22;12802;53.390;-2.328;2022-12-28T10:02:23;8.30;99.90
24682;DHT22;12802;53.390;-2.328;2022-12-28T10:04:50;8.30;99.90
24682;DHT22;12802;53.390;-2.328;2022-12-28T10:07:16;8.40;99.90
24682;DHT22;12802;53.390;-2.328;2022-12-28T10:09:42;8.40;99.90
24682;DHT22;12802;53.390;-2.328;2022-12-28T10:12:19;8.40;99.90
24682;DHT22;12802;53.390;-2.328;2022-12-28T10:14:46;8.40;99.90
24682;DHT22;12802;53.390;-2.328;2022-12-28T10:17:14;8.50;99.90
24682;DHT22;12802;53.390;-2.328;2022-12-28T10:19:43;8.50;99.90
24682;DHT22;12802;53.390;-2.328;2022-12-28T10:22:13;8.50;99.90
24682;DHT22;12802;53.390;-2.328;2022-12-28T10:24:42;8.60;99.90
24682;DHT22;12802;53.390;-2.328;2022-12-28T10:27:20;8.60;99.90
24682;DHT22;12802;53.390;-2.328;2022-12-28T10:29:49;8.70;99.90
24682;DHT22;12802;53.390;-2.328;2022-12-28T10:32:15;8.80;99.90
24682;DHT22;12802;53.390;-2.328;2022-12-28T10:34:54;8.80;99.90
24682;DHT22;12802;53.390;-2.328;2022-12-28T10:37:21;8.90;99.90
24682;DHT22;12802;53.390;-2.328;2022-12-28T10:40:02;9.00;99.90
24682;DHT22;12802;53.390;-2.328;2022-12-28T10:42:42;9.00;99.90
24682;DHT22;12802;53.390;-2.328;2022-12-28T10:45:38;9.00;99.90
24682;DHT22;12802;53.390;-2.328;2022-12-28T10:48:12;9.10;99.90
24682;DHT22;12802;53.390;-2.328;2022-12-28T10:50:44;9.20;99.90
24682;DHT22;12802;53.390;-2.328;2022-12-28T10:53:22;9.20;99.90
24682;DHT22;12802;53.390;-2.328;2022-12-28T10:55:49;9.20;99.90
24682;DHT22;12802;53.390;-2.328;2022-12-28T10:58:24;9.30;99.90
24682;DHT22;12802;53.390;-2.328;2022-12-28T11:03:39;9.40;99.90
24682;DHT22;12802;53.390;-2.328;2022-12-28T11:06:09;9.40;99.90
24682;DHT22;12802;53.390;-2.328;2022-12-28T11:08:35;9.40;99.90
24682;DHT22;12802;53.390;-2.328;2022-12-28T11:11:01;9.40;99.90
24682;DHT22;12802;53.390;-2.328;2022-12-28T11:13:27;9.40;99.90
24682;DHT22;12802;53.390;-2.328;2022-12-28T11:15:53;9.50;99.90
24682;DHT22;12802;53.390;-2.328;2022-12-28T11:18:19;9.50;99.90
24682;DHT22;12802;53.390;-2.328;2022-12-28T11:20:50;9.60;99.90
24682;DHT22;12802;53.390;-2.328;2022-12-28T11:23:21;9.60;99.90
24682;DHT22;12802;53.390;-2.328;2022-12-28T11:25:48;9.60;99.90
24682;DHT22;12802;53.390;-2.328;2022-12-28T11:28:17;9.60;99.90
24682;DHT22;12802;53.390;-2.328;2022-12-28T11:30:44;9.70;99.90
24682;DHT22;12802;53.390;-2.328;2022-12-28T11:33:42;9.70;99.90
24682;DHT22;12802;53.390;-2.328;2022-12-28T11:36:23;9.70;99.90
24682;DHT22;12802;53.390;-2.328;2022-12-28T11:38:51;9.70;99.90
24682;DHT22;12802;53.390;-2.328;2022-12-28T11:43:53;9.80;99.90
24682;DHT22;12802;53.390;-2.328;2022-12-28T11:49:04;9.80;99.90
24682;DHT22;12802;53.390;-2.328;2022-12-28T11:51:32;9.90;99.90
24682;DHT22;12802;53.390;-2.328;2022-12-28T11:54:00;9.90;99.90
24682;DHT22;12802;53.390;-2.328;2022-12-28T11:59:23;10.00;99.90
24682;DHT22;12802;53.390;-2.328;2022-12-28T12:04:39;10.00;99.90
24682;DHT22;12802;53.390;-2.328;2022-12-28T12:07:06;10.00;99.90
24682;DHT22;12802;53.390;-2.328;2022-12-28T12:15:15;10.10;99.90
24682;DHT22;12802;53.390;-2.328;2022-12-28T12:17:53;10.10;99.90
24682;DHT22;12802;53.390;-2.328;2022-12-28T12:20:49;10.10;99.90
24682;DHT22;12802;53.390;-2.328;2022-12-28T12:23:40;10.20;99.90
24682;DHT22;12802;53.390;-2.328;2022-12-28T12:26:26;10.10;99.90
24682;DHT22;12802;53.390;-2.328;2022-12-28T12:29:21;10.20;99.90
24682;DHT22;12802;53.390;-2.328;2022-12-28T12:31:49;10.20;99.90
24682;DHT22;12802;53.390;-2.328;2022-12-28T12:34:47;10.20;99.90
24682;DHT22;12802;53.390;-2.328;2022-12-28T12:56:57;10.20;99.90
24682;DHT22;12802;53.390;-2.328;2022-12-28T13:04:40;10.30;99.90
24682;DHT22;12802;53.390;-2.328;2022-12-28T13:07:19;10.30;99.90
24682;DHT22;12802;53.390;-2.328;2022-12-28T13:09:47;10.20;99.90
24682;DHT22;12802;53.390;-2.328;2022-12-28T13:12:16;10.20;99.90
24682;DHT22;12802;53.390;-2.328;2022-12-28T13:14:48;10.20;99.90
24682;DHT22;12802;53.390;-2.328;2022-12-28T13:17:20;10.30;99.90
24682;DHT22;12802;53.390;-2.328;2022-12-28T13:19:46;10.30;99.90
24682;DHT22;12802;53.390;-2.328;2022-12-28T13:22:29;10.30;99.90
24682;DHT22;12802;53.390;-2.328;2022-12-28T13:24:56;10.30;99.90
24682;DHT22;12802;53.390;-2.328;2022-12-28T13:27:33;10.20;99.90
24682;DHT22;12802;53.390;-2.328;2022-12-28T13:29:59;10.30;99.90
24682;DHT22;12802;53.390;-2.328;2022-12-28T13:32:30;10.30;99.90
24682;DHT22;12802;53.390;-2.328;2022-12-28T13:34:57;10.30;99.90
24682;DHT22;12802;53.390;-2.328;2022-12-28T13:37:23;10.30;99.90
24682;DHT22;12802;53.390;-2.328;2022-12-28T13:39:49;10.30;99.90
24682;DHT22;12802;53.390;-2.328;2022-12-28T13:42:18;10.30;99.90
24682;DHT22;12802;53.390;-2.328;2022-12-28T13:44:49;10.30;99.90
24682;DHT22;12802;53.390;-2.328;2022-12-28T13:47:35;10.30;99.90
24682;DHT22;12802;53.390;-2.328;2022-12-28T13:50:05;10.30;99.90
24682;DHT22;12802;53.390;-2.328;2022-12-28T13:52:39;10.30;99.90
24682;DHT22;12802;53.390;-2.328;2022-12-28T13:55:13;10.30;99.90
24682;DHT22;12802;53.390;-2.328;2022-12-28T13:57:41;10.40;99.90
24682;DHT22;12802;53.390;-2.328;2022-12-28T14:00:09;10.40;99.90
24682;DHT22;12802;53.390;-2.328;2022-12-28T14:02:38;10.40;99.90
24682;DHT22;12802;53.390;-2.328;2022-12-28T14:05:07;10.40;99.90
24682;DHT22;12802;53.390;-2.328;2022-12-28T14:07:35;10.40;99.90
24682;DHT22;12802;53.390;-2.328;2022-12-28T14:10:03;10.40;99.90
24682;DHT22;12802;53.390;-2.328;2022-12-28T14:12:30;10.40;99.90
24682;DHT22;12802;53.390;-2.328;2022-12-28T14:14:57;10.40;99.90
24682;DHT22;12802;53.390;-2.328;2022-12-28T14:17:24;10.40;99.90
24682;DHT22;12802;53.390;-2.328;2022-12-28T14:19:51;10.40;99.90
24682;DHT22;12802;53.390;-2.328;2022-12-28T14:22:36;10.40;99.90
24682;DHT22;12802;53.390;-2.328;2022-12-28T14:28:02;10.40;99.90
24682;DHT22;12802;53.390;-2.328;2022-12-28T14:30:30;10.40;99.90
24682;DHT22;12802;53.390;-2.328;2022-12-28T14:33:03;10.40;99.90
24682;DHT22;12802;53.390;-2.328;2022-12-28T14:35:30;10.40;99.90
24682;DHT22;12802;53.390;-2.328;2022-12-28T14:37:59;10.50;99.90
24682;DHT22;12802;53.390;-2.328;2022-12-28T14:40:32;10.50;99.90
24682;DHT22;12802;53.390;-2.328;2022-12-28T14:43:21;10.50;99.90
24682;DHT22;12802;53.390;-2.328;2022-12-28T14:45:48;10.50;99.90
24682;DHT22;12802;53.390;-2.328;2022-12-28T14:48:34;10.50;99.90
24682;DHT22;12802;53.390;-2.328;2022-12-28T14:53:31;10.60;99.90
24682;DHT22;12802;53.390;-2.328;2022-12-28T14:56:12;10.60;99.90
24682;DHT22;12802;53.390;-2.328;2022-12-28T14:58:51;10.70;99.90
24682;DHT22;12802;53.390;-2.328;2022-12-28T15:01:19;10.70;99.90
24682;DHT22;12802;53.390;-2.328;2022-12-28T15:03:50;10.70;99.90
24682;DHT22;12802;53.390;-2.328;2022-12-28T15:06:16;10.80;99.90
24682;DHT22;12802;53.390;-2.328;2022-12-28T15:08:51;10.90;99.90
24682;DHT22;12802;53.390;-2.328;2022-12-28T15:11:19;10.90;99.90
24682;DHT22;12802;53.390;-2.328;2022-12-28T15:13:45;10.90;99.90
24682;DHT22;12802;53.390;-2.328;2022-12-28T15:16:12;10.80;99.90
24682;DHT22;12802;53.390;-2.328;2022-12-28T15:18:40;10.80;99.90
24682;DHT22;12802;53.390;-2.328;2022-12-28T15:21:14;10.70;99.90
24682;DHT22;12802;53.390;-2.328;2022-12-28T15:23:40;10.70;99.90
24682;DHT22;12802;53.390;-2.328;2022-12-28T15:26:10;10.60;99.90
24682;DHT22;12802;53.390;-2.328;2022-12-28T15:28:36;10.50;99.90
24682;DHT22;12802;53.390;-2.328;2022-12-28T15:31:11;10.40;99.90
24682;DHT22;12802;53.390;-2.328;2022-12-28T15:33:37;10.40;99.90
24682;DHT22;12802;53.390;-2.328;2022-12-28T15:36:14;10.40;99.90
24682;DHT22;12802;53.390;-2.328;2022-12-28T15:38:40;10.40;99.90
24682;DHT22;12802;53.390;-2.328;2022-12-28T15:41:06;10.40;99.90
24682;DHT22;12802;53.390;-2.328;2022-12-28T15:43:50;10.40;99.90
24682;DHT22;12802;53.390;-2.328;2022-12-28T15:46:16;10.40;99.90
24682;DHT22;12802;53.390;-2.328;2022-12-28T15:48:42;10.40;99.90
24682;DHT22;12802;53.390;-2.328;2022-12-28T15:51:07;10.50;99.90
24682;DHT22;12802;53.390;-2.328;2022-12-28T15:53:33;10.50;99.90
24682;DHT22;12802;53.390;-2.328;2022-12-28T15:55:59;10.60;99.90
24682;DHT22;12802;53.390;-2.328;2022-12-28T15:58:26;10.60;99.90
24682;DHT22;12802;53.390;-2.328;2022-12-28T16:00:51;10.60;99.90
24682;DHT22;12802;53.390;-2.328;2022-12-28T16:03:17;10.70;99.90
24682;DHT22;12802;53.390;-2.328;2022-12-28T16:05:43;10.70;99.90
24682;DHT22;12802;53.390;-2.328;2022-12-28T16:08:09;10.70;99.90
24682;DHT22;12802;53.390;-2.328;2022-12-28T16:10:34;10.70;99.90
24682;DHT22;12802;53.390;-2.328;2022-12-28T16:13:00;10.70;99.90
24682;DHT22;12802;53.390;-2.328;2022-12-28T16:15:26;10.60;99.90
24682;DHT22;12802;53.390;-2.328;2022-12-28T16:17:52;10.50;99.90
24682;DHT22;12802;53.390;-2.328;2022-12-28T16:20:18;10.40;99.90
24682;DHT22;12802;53.390;-2.328;2022-12-28T16:22:44;10.30;99.90
24682;DHT22;12802;53.390;-2.328;2022-12-28T16:25:10;10.30;99.90
24682;DHT22;12802;53.390;-2.328;2022-12-28T16:27:36;10.30;99.90
24682;DHT22;12802;53.390;-2.328;2022-12-28T16:30:03;10.30;99.90
24682;DHT22;12802;53.390;-2.328;2022-12-28T16:32:29;10.30;99.90
24682;DHT22;12802;53.390;-2.328;2022-12-28T16:34:55;10.30;99.90
24682;DHT22;12802;53.390;-2.328;2022-12-28T16:37:21;10.30;99.90
24682;DHT22;12802;53.390;-2.328;2022-12-28T16:39:46;10.30;99.90
24682;DHT22;12802;53.390;-2.328;2022-12-28T16:42:12;10.30;99.90
24682;DHT22;12802;53.390;-2.328;2022-12-28T16:44:38;10.30;99.90
24682;DHT22;12802;53.390;-2.328;2022-12-28T16:47:04;10.30;99.90
24682;DHT22;12802;53.390;-2.328;2022-12-28T16:49:31;10.20;99.90
24682;DHT22;12802;53.390;-2.328;2022-12-28T16:51:57;10.20;99.90
24682;DHT22;12802;53.390;-2.328;2022-12-28T16:54:24;10.20;99.90
24682;DHT22;12802;53.390;-2.328;2022-12-28T16:56:51;10.20;99.90
24682;DHT22;12802;53.390;-2.328;2022-12-28T16:59:25;10.10;99.90
24682;DHT22;12802;53.390;-2.328;2022-12-28T17:01:52;10.10;99.90
24682;DHT22;12802;53.390;-2.328;2022-12-28T17:04:19;10.10;99.90
24682;DHT22;12802;53.390;-2.328;2022-12-28T17:06:45;10.10;99.90
24682;DHT22;12802;53.390;-2.328;2022-12-28T17:09:13;10.10;99.90
24682;DHT22;12802;53.390;-2.328;2022-12-28T17:11:39;10.10;99.90
24682;DHT22;12802;53.390;-2.328;2022-12-28T17:14:08;10.10;99.90
24682;DHT22;12802;53.390;-2.328;2022-12-28T17:16:34;10.00;99.90